Timeline UpdatesTrip UpdatesNews PostsPvt PostsTravel TipsAdmin PostsConv PostsFollowed PostsChat RequestsBlog PostsPNR Posts

Disclaimer
Search
 
 
Thu Oct 2, 2014 03:49:15 ISTHomeTrainsΣChainsAtlasPNRForumGalleryNewsFAQTripsMembersLoginFeedback
No Recent News for this Train
Other Trains in the News **new
Latest...
-
Tue Aug 05, 2014 (01:25PM)
⇐ Return Journey: Train# 16508

16507/Bhagat Ki Kothi - Bangalore Express

Time-Table HAS CHANGED.
Sep 01 2014 (11:39PM)
Change Departure Station:
Change Arrival Station:
Post a Train Travel TipPost a Train Travel Tip **new
Post a Comment/Question/Picture/VideoPost a Comment/Question/Picture/Video
Pantry/Catering
✓ Pantry Car Avbl
✓ Catering Avbl
RSA - Rake Sharing
Rake/Coach Composition
SLR-2; UR-3; SL-12; 3A-3; 2A-2 ;PC.total 23 coaches.Permanent 3AC from April 11 ex-Jodhpur.
Loco
Wdp-4 hubli shed
News    PNR    Forum    Time-Table    Availability    Fare Chart    Map    Arr/Dep History    Trips    Gallery    ΣChains    X/O    Timeline    
Travel Time: 8h 45m    8 halts    Distance: 446 km    Avg Speed: 50 km/hr
Type: Mail/Express
Zone: SWR/South Western
Departs @ 14:50 (Avg 3m late)
Platform# 7
    T S
Ahmedabad Junction/ADI 
Arrives @ 23:35 (Avg 1m early)
Platform# 7
    T S
Vasai Road/BSR 

8 halts. 82 intermediate Stations between Ahmedabad Junction and Vasai Road

Show ALL intermediate Stations  Show Old Time-Table

#CodeStation NameX/OArrivesAvgDepartsAvgHaltPFDay#KmSpeedElevZoneAddress
1BGKTBhagat Ki Kothi (3)  -05:40 05:35+0--1-456.449229mNWRJodhpur, Rajasthan
2LUNILuni Junction (3)  06:10+506:13+63m--1-428.163180mNWRLuni, Rajasthan
3PMYPali Marwar (2)  06:41 06:52+1106:43 06:54+132m--1-386.938221mNWRPali, Rajasthan
4MJMarwar Junction (4)  07:36 07:43+507:45+79 2m31-356.080267mNWRMarwar Junction, Rajasthan
5FAFalna (2)  08:34 08:35+1408:36 08:37+152m11-289.565282mNWRFalna, Rajasthan
6JWBJawai Bandh  08:51 08:52+1808:53 08:54+182m--1-273.369292mNWRPali, Rajasthan
7ABRAbu Road (3)X  10:06+2210:25+1819m--1-190.638264mNWRSirohi Dist, Rajasthan
8PNUPalanpur Junction (5)X  11:48+611:50+122m11-138.063216mWRPalanpur, Gujarat
9SIDSiddhpur  12:18+1412:20+142m--1-108.647136mWRState Highway 41, Gujarat
10MSHMahesana Junction (6)  13:05+1613:07+212m--1-73.05395mWRMehsana, Gujarat
11ADIAhmedabad Junction (12)»  14:30+714:50+320m710.05451mWRAhmedabad, Gujarat
12NDNadiad Junction (4)  15:41+2615:43+262m1145.66237mWRNadiad, Gujarat
13ANNDAnand Junction (6)X  16:01+2816:03+282m1164.05144mWRAnand, Gujarat
14BRCVadodara Junction (7)X  16:42 16:45+3416:52 16:55+3510m1199.88536mWRVadodara 390005, Gujarat
15BHBharuch Junction (5)  17:39 17:45+3417:41 17:47+282m41170.34619mWRBharuch, Gujarat
16STSurat (4)X  19:05+1619:15+1510m21229.65919mWRSurat 395001, Gujarat
17NVSNavsari (3)  19:45+2419:47+252m21259.26514mWRNavsari, Gujarat
18BLValsad (3)X  20:23+2420:25+262m31298.36615mWRValsad, Gujarat
19VAPIVapi (3)  20:49+2820:51+282m21324.54427mWRVapi, Gujarat
20BSRVasai Road (7)•X  23:35-123:40+55m71445.6537mWRVasai 401202, Maharashtra
21BIRDBhiwandi Road (4)X  00:11+900:13+92m22472.92126mCRBhiwandi, Maharashtra
22KYNKalyan Junction (8)  01:08 01:05-301:10+62 5m62490.94810mCRKalyan 421301, Maharashtra
23KJTKarjat Junction (4)  02:08+502:10+92m12537.75257mCRKarjat, Maharashtra
24LNLLonavala (3)  02:58 02:43+603:00 02:45+82m12566.445623mCRLonavala 410401, Maharashtra
25PUNEPune Junction (6)X  04:10+304:20+1310m12630.051556mCRPune 411001, Maharashtra
26STRSatara (3)  07:10+3007:13+313m--2775.765637mCRSatara, Maharashtra
27KRDKarad (3)  08:08 08:07+3408:10+342 3m--2834.453597mCRDist- Satara., Maharashtra
28SLISangli (3)X  09:27+1309:30+173m32902.37559mCRSangli, Maharashtra
29MRJMiraj Junction (6)  10:30-110:35+05m12909.654554mCRMiraj 416410, Maharashtra
30GPBGhatprabha (2)  12:03+3512:05+352m--2989.143621mSWRGhatprabha, Karnataka
31BGMBelgaum (3)  13:25+3613:30+375m--21047.068752mSWRBelgaum 590001, Karnataka
32LDLonda Junction (3)  14:15+5214:17+552m--21098.334643mSWRLonda, Karnataka
33DWRDharwad (4)X  16:20+1916:25+195m--21168.818737mSWRDharwad 580001, Karnataka
34UBLHubli Junction (5)  17:30+017:40+210m121188.858640mSWRHubli - 580020, Karnataka
35HVRHaveri (3)  18:50 18:58+1918:52 19:00+212m--21263.970558mSWRHaveri, Karnataka
36RNRRanibennur (3)  19:26 19:28+3219:28 19:30+312m--21296.542583mSWRRanebennur, Karnataka
37HRRHarihar (3)X  20:05 20:03+2120:10 20:05+265 2m--21319.843553mSWRHarihar, Karnataka
38DVGDavangere (2)  20:24 20:23+2720:27 20:25+273 2m121332.667598mSWRDavanagere, Karnataka
39RRBBirur Junction (3)  22:08+3522:10+352m--21447.654802mSWRBirur, Karnataka
40ASKArsikere Junction (3)  23:00+2623:05+305m--21492.655816mSWRArsikere, Karnataka
41TTRTiptur (4)X  23:33+3623:35+402m--21518.138860mSWRTiptur, Karnataka
42TKTumkur (3)  01:28+1701:30+182m--31589.144823mSWRTumkur, Karnataka
43YPRYesvantpur Junction (6)  02:55 02:58+903:00+95 2m--31653.121919mSWRBengaluru 560022, Karnataka
44MWMMalleswaram (2)  03:08-03:10-2m--31655.934916mSWRBengaluru, Karnataka
45SBCBangalore City Junction (10)  03:15+7-831658.7-903mSWRBengaluru-560023, Karnataka
Scroll to Top
Scroll to Bottom